Time;durP1;ratioP1;P1;durP2;ratioP2;P2;SDS_P1;SDS_P2;PMS_P1;PMS_P2;Temp;Humidity;BMP_temperature;BMP_pressure;BME280_temperature;BME280_humidity;BME280_pressure;Samples;Min_cycle;Max_cycle;Signal;HPM_P1;HPM_P2
2021/12/28 00:00:47;;;;;;;6.00;5.05;;;11.90;67.50;;;;;;5076470;28;20048;-78
2021/12/28 00:03:13;;;;;;;5.63;5.05;;;11.90;67.50;;;;;;5075575;28;20060;-78
2021/12/28 00:05:39;;;;;;;6.82;5.40;;;12.00;67.60;;;;;;5059253;28;20048;-79
2021/12/28 00:08:05;;;;;;;6.55;5.28;;;12.00;67.70;;;;;;5059169;28;20063;-78
2021/12/28 00:10:30;;;;;;;7.90;5.40;;;11.90;67.60;;;;;;5058807;28;20048;-81
2021/12/28 00:12:56;;;;;;;5.85;5.20;;;11.90;67.60;;;;;;5059659;28;20101;-78
2021/12/28 00:18:04;;;;;;;5.85;5.25;;;11.90;67.70;;;;;;5076557;28;20064;-79
2021/12/28 00:20:30;;;;;;;8.85;5.78;;;11.90;67.80;;;;;;5076524;28;20313;-78
2021/12/28 00:22:57;;;;;;;6.30;5.30;;;12.00;67.80;;;;;;5076350;28;20052;-77
2021/12/28 00:25:23;;;;;;;7.38;5.93;;;11.90;67.80;;;;;;5076369;28;20036;-78
2021/12/28 00:27:49;;;;;;;5.80;5.20;;;11.90;67.80;;;;;;5087321;28;20051;-78
2021/12/28 00:30:15;;;;;;;6.35;5.63;;;11.90;68.00;;;;;;5078646;28;20479;-78
2021/12/28 00:32:41;;;;;;;6.53;5.75;;;11.90;68.10;;;;;;5096502;28;20136;-77
2021/12/28 00:35:07;;;;;;;7.07;5.80;;;11.90;68.00;;;;;;5096497;28;20070;-78
2021/12/28 00:37:33;;;;;;;7.20;6.32;;;11.90;68.10;;;;;;5078455;28;20040;-77
2021/12/28 00:39:59;;;;;;;6.57;5.88;;;11.90;68.20;;;;;;5096037;28;20348;-78
2021/12/28 00:42:24;;;;;;;8.85;6.40;;;11.90;68.30;;;;;;5096244;28;20036;-78
2021/12/28 00:44:50;;;;;;;6.55;5.90;;;11.90;68.30;;;;;;5096143;28;20051;-80
2021/12/28 00:47:16;;;;;;;6.93;6.22;;;11.90;68.30;;;;;;5077767;28;20455;-78
2021/12/28 00:49:42;;;;;;;7.55;6.55;;;11.90;68.40;;;;;;5096179;28;20094;-79
2021/12/28 00:52:08;;;;;;;8.13;6.47;;;11.90;68.40;;;;;;5077790;28;20109;-77
2021/12/28 00:54:34;;;;;;;7.10;6.30;;;11.90;68.40;;;;;;5095574;28;20059;-78
2021/12/28 00:57:01;;;;;;;8.90;7.25;;;11.90;68.40;;;;;;5090595;28;20415;-78
2021/12/28 00:59:27;;;;;;;7.70;6.82;;;11.90;68.50;;;;;;5058074;28;20064;-76
2021/12/28 01:01:53;;;;;;;8.68;7.50;;;11.80;68.50;;;;;;5075624;28;20040;-78
2021/12/28 01:04:19;;;;;;;8.57;6.82;;;11.90;68.60;;;;;;5058035;28;20421;-78
2021/12/28 01:06:45;;;;;;;8.93;7.05;;;11.80;68.50;;;;;;5058083;28;20135;-77
2021/12/28 01:09:11;;;;;;;7.32;6.55;;;11.80;68.60;;;;;;5075307;28;20048;-78
2021/12/28 01:11:36;;;;;;;7.22;6.50;;;11.80;68.60;;;;;;5075438;28;20110;-77
2021/12/28 01:14:02;;;;;;;7.80;7.00;;;11.90;68.60;;;;;;5057911;28;20044;-79
2021/12/28 01:16:28;;;;;;;7.47;6.47;;;11.90;68.70;;;;;;5058490;28;20056;-77
2021/12/28 01:18:54;;;;;;;8.60;7.20;;;11.80;68.70;;;;;;5075293;28;20079;-78
2021/12/28 01:21:20;;;;;;;8.23;7.43;;;11.90;68.80;;;;;;5075374;28;20040;-77
2021/12/28 01:23:45;;;;;;;8.95;7.10;;;11.90;68.80;;;;;;5074842;28;20048;-76
2021/12/28 01:26:11;;;;;;;8.90;7.18;;;11.90;68.70;;;;;;5075192;28;20040;-78
2021/12/28 01:28:37;;;;;;;10.30;7.40;;;11.80;68.80;;;;;;5095708;28;20052;-79
2021/12/28 01:31:04;;;;;;;11.27;8.15;;;11.90;68.90;;;;;;5095368;28;20513;-78
2021/12/28 01:33:30;;;;;;;11.32;8.43;;;11.80;69.00;;;;;;5077741;28;20122;-78
2021/12/28 01:35:56;;;;;;;11.25;9.23;;;11.90;69.20;;;;;;5095503;28;20058;-76
2021/12/28 01:38:22;;;;;;;12.35;9.02;;;11.80;69.30;;;;;;5077396;28;20172;-78
2021/12/28 01:40:48;;;;;;;14.88;9.77;;;11.80;69.30;;;;;;5060825;28;20061;-77
2021/12/28 01:43:20;;;;;;;13.75;9.25;;;11.80;69.40;;;;;;5095058;28;20443;-78
2021/12/28 01:45:59;;;;;;;10.95;9.35;;;11.80;69.30;;;;;;5095455;28;20048;-77
2021/12/28 01:48:31;;;;;;;11.88;8.30;;;11.80;69.40;;;;;;5095377;28;20052;-78
2021/12/28 01:51:01;;;;;;;11.32;9.10;;;11.80;69.30;;;;;;5095191;28;20116;-78
2021/12/28 01:53:28;;;;;;;11.95;9.40;;;11.80;69.50;;;;;;5077331;28;20443;-77
2021/12/28 01:55:56;;;;;;;12.38;9.38;;;11.80;69.60;;;;;;5077546;28;20074;-79
2021/12/28 01:58:23;;;;;;;12.10;9.30;;;11.80;69.70;;;;;;5077554;28;20109;-77
2021/12/28 02:00:50;;;;;;;12.23;8.35;;;11.80;69.80;;;;;;5079165;28;20045;-80
2021/12/28 02:03:19;;;;;;;10.15;8.30;;;11.80;69.80;;;;;;5061751;28;20044;-78
2021/12/28 02:05:44;;;;;;;11.18;8.65;;;11.80;69.80;;;;;;5061131;28;20060;-78
2021/12/28 02:08:12;;;;;;;10.45;8.05;;;11.80;69.80;;;;;;5079575;28;20044;-76
2021/12/28 02:10:39;;;;;;;12.75;9.75;;;11.80;69.80;;;;;;5061404;28;20483;-78
2021/12/28 02:13:06;;;;;;;10.40;9.02;;;11.70;69.80;;;;;;5078941;28;20059;-77
2021/12/28 02:15:33;;;;;;;12.05;9.00;;;11.80;70.00;;;;;;5079524;28;20067;-79
2021/12/28 02:17:58;;;;;;;10.55;8.70;;;11.70;69.90;;;;;;5079213;28;20086;-78
2021/12/28 02:20:24;;;;;;;9.52;8.25;;;11.70;69.80;;;;;;5078509;28;20048;-79
2021/12/28 02:22:50;;;;;;;10.38;8.43;;;11.80;69.80;;;;;;5078308;28;20048;-78
2021/12/28 02:25:17;;;;;;;11.70;9.00;;;11.80;69.80;;;;;;5061392;28;20052;-79
2021/12/28 02:27:43;;;;;;;10.60;8.80;;;11.80;69.80;;;;;;5060915;28;20052;-79
2021/12/28 02:30:12;;;;;;;9.70;7.75;;;11.80;69.80;;;;;;5078375;28;20123;-78
2021/12/28 02:32:39;;;;;;;11.00;8.43;;;11.80;70.00;;;;;;5060783;28;20501;-78
2021/12/28 02:35:11;;;;;;;10.18;8.18;;;11.80;70.00;;;;;;5078707;28;20079;-78
2021/12/28 02:37:37;;;;;;;11.43;8.93;;;11.80;70.20;;;;;;5077895;28;20044;-78
2021/12/28 02:40:07;;;;;;;11.13;8.48;;;11.80;70.10;;;;;;5060611;28;20337;-77
2021/12/28 02:42:33;;;;;;;13.93;8.95;;;11.80;70.10;;;;;;5060860;28;20059;-78
2021/12/28 02:45:10;;;;;;;10.57;8.60;;;11.80;70.10;;;;;;5078445;28;20048;-78
2021/12/28 02:47:42;;;;;;;11.23;8.27;;;11.80;70.30;;;;;;5077801;28;20514;-79
2021/12/28 02:50:17;;;;;;;10.00;8.48;;;11.80;70.30;;;;;;5077848;28;20459;-81
2021/12/28 02:52:43;;;;;;;11.20;9.20;;;11.80;70.90;;;;;;5077875;28;20455;-77
2021/12/28 02:55:12;;;;;;;11.55;9.00;;;11.80;70.40;;;;;;5078024;28;20040;-78
2021/12/28 02:57:46;;;;;;;13.73;9.13;;;11.70;70.50;;;;;;5078206;28;20397;-78
2021/12/28 03:00:12;;;;;;;11.70;9.10;;;11.70;70.60;;;;;;5075742;28;20053;-78
2021/12/28 03:02:38;;;;;;;11.85;8.65;;;11.70;70.70;;;;;;5077695;28;20104;-78
2021/12/28 03:05:04;;;;;;;13.48;9.82;;;11.80;70.70;;;;;;5077717;28;20087;-78
2021/12/28 03:07:30;;;;;;;11.55;9.32;;;11.70;70.80;;;;;;5077957;28;20443;-77
2021/12/28 03:09:56;;;;;;;12.55;8.85;;;11.70;70.70;;;;;;5077214;28;20052;-77
2021/12/28 03:12:21;;;;;;;13.50;9.88;;;11.80;70.60;;;;;;5059489;28;20125;-78
2021/12/28 03:14:48;;;;;;;11.32;9.32;;;11.70;70.70;;;;;;5077855;28;20045;-79
2021/12/28 03:17:14;;;;;;;9.63;7.70;;;11.80;70.70;;;;;;5077427;28;20056;-77
2021/12/28 03:19:40;;;;;;;13.45;9.27;;;11.80;70.50;;;;;;5077644;28;20052;-78
2021/12/28 03:22:06;;;;;;;12.32;9.02;;;11.80;70.40;;;;;;5060726;28;20056;-78
2021/12/28 03:24:31;;;;;;;12.65;9.35;;;11.80;70.50;;;;;;5060580;28;20423;-79
2021/12/28 03:26:58;;;;;;;10.80;8.43;;;11.80;70.40;;;;;;5071090;28;20051;-76
2021/12/28 03:29:23;;;;;;;10.25;8.18;;;11.80;70.50;;;;;;5097343;28;20048;-78
2021/12/28 03:31:49;;;;;;;12.27;8.60;;;11.80;70.40;;;;;;5079368;28;20100;-79
2021/12/28 03:34:15;;;;;;;15.38;9.43;;;11.80;70.40;;;;;;5079708;28;20056;-79
2021/12/28 03:36:41;;;;;;;13.18;8.30;;;11.80;70.40;;;;;;5097644;28;20062;-77
2021/12/28 03:39:07;;;;;;;14.63;9.18;;;11.80;70.30;;;;;;5080325;28;20051;-78
2021/12/28 03:41:33;;;;;;;11.05;7.75;;;11.80;70.50;;;;;;5097335;28;20113;-79
2021/12/28 03:43:59;;;;;;;12.48;8.20;;;11.90;70.30;;;;;;5079597;28;20044;-77
2021/12/28 03:46:26;;;;;;;12.27;8.75;;;11.80;70.40;;;;;;5097837;28;20135;-78
2021/12/28 03:48:53;;;;;;;15.00;8.77;;;11.80;70.50;;;;;;5097080;28;20135;-79
2021/12/28 03:51:19;;;;;;;10.93;8.07;;;11.80;70.40;;;;;;5087382;28;20052;-76
2021/12/28 03:53:46;;;;;;;15.15;8.40;;;11.80;70.40;;;;;;5076811;28;20048;-77
2021/12/28 03:56:12;;;;;;;16.42;9.30;;;11.90;70.50;;;;;;5059514;28;20117;-77
2021/12/28 03:58:40;;;;;;;18.77;8.20;;;11.80;70.40;;;;;;5076952;28;20131;-78
2021/12/28 04:01:08;;;;;;;13.23;9.02;;;11.80;70.50;;;;;;5059299;28;20116;-77
2021/12/28 04:03:34;;;;;;;12.10;7.68;;;11.80;70.40;;;;;;5060759;28;20189;-78
2021/12/28 04:06:07;;;;;;;13.27;8.13;;;11.80;70.50;;;;;;5097585;28;20126;-77
2021/12/28 04:08:33;;;;;;;12.73;8.05;;;11.90;70.60;;;;;;5079598;28;20048;-77
2021/12/28 04:11:15;;;;;;;14.02;8.30;;;11.80;70.60;;;;;;5096702;28;20040;-79
2021/12/28 04:13:42;;;;;;;14.07;8.35;;;11.90;70.50;;;;;;5096924;28;20048;-77
2021/12/28 04:16:08;;;;;;;16.33;7.97;;;11.90;70.60;;;;;;5079159;28;20127;-78
2021/12/28 04:18:34;;;;;;;13.50;7.65;;;11.90;70.70;;;;;;5078866;28;20123;-78
2021/12/28 04:20:59;;;;;;;12.88;8.05;;;11.80;70.60;;;;;;5095827;28;20054;-77
2021/12/28 04:23:25;;;;;;;12.57;7.57;;;11.90;70.70;;;;;;5079339;28;20421;-80
2021/12/28 04:25:51;;;;;;;14.88;7.80;;;11.80;70.80;;;;;;5092784;28;20109;-77
2021/12/28 04:28:17;;;;;;;14.23;7.40;;;11.80;70.90;;;;;;5058897;28;20055;-78
2021/12/28 04:30:42;;;;;;;12.55;8.40;;;11.80;70.80;;;;;;5058563;28;20041;-76
2021/12/28 04:33:08;;;;;;;12.25;7.60;;;11.80;70.90;;;;;;5092011;28;20057;-78
2021/12/28 04:35:34;;;;;;;13.75;8.13;;;11.80;70.90;;;;;;5059202;28;20086;-79
2021/12/28 04:38:00;;;;;;;17.95;8.70;;;11.80;70.90;;;;;;5058161;28;20066;-79
2021/12/28 04:40:26;;;;;;;14.05;7.72;;;11.80;71.00;;;;;;5075739;28;20540;-77
2021/12/28 04:42:52;;;;;;;12.32;8.00;;;11.80;71.00;;;;;;5058410;28;20128;-76
2021/12/28 04:45:18;;;;;;;15.48;8.45;;;11.80;71.00;;;;;;5076129;28;20458;-76
2021/12/28 04:47:44;;;;;;;16.73;8.20;;;11.80;71.00;;;;;;5057952;28;20132;-76
2021/12/28 04:50:11;;;;;;;13.60;8.30;;;11.80;71.00;;;;;;5058128;28;20055;-76
2021/12/28 04:52:39;;;;;;;15.55;7.97;;;11.80;71.00;;;;;;5057958;28;20063;-77
2021/12/28 04:55:10;;;;;;;17.20;7.63;;;11.80;71.10;;;;;;5075576;28;20056;-79
2021/12/28 04:57:36;;;;;;;16.55;8.52;;;11.80;71.10;;;;;;5058377;28;20467;-77
2021/12/28 05:00:04;;;;;;;16.13;7.70;;;11.80;71.00;;;;;;5075892;28;20048;-77
2021/12/28 05:02:30;;;;;;;12.95;7.53;;;11.80;71.20;;;;;;5058066;28;20048;-78
2021/12/28 05:04:56;;;;;;;12.75;7.28;;;11.80;71.30;;;;;;5057814;28;20044;-78
2021/12/28 05:07:21;;;;;;;13.48;8.27;;;11.80;71.10;;;;;;5075182;28;20166;-78
2021/12/28 05:09:49;;;;;;;16.63;7.40;;;11.80;71.20;;;;;;5076398;28;20052;-77
2021/12/28 05:12:14;;;;;;;16.77;7.60;;;11.80;71.20;;;;;;5057746;28;20052;-76
2021/12/28 05:14:42;;;;;;;15.38;7.07;;;11.80;71.00;;;;;;5057991;28;20088;-78
2021/12/28 05:17:08;;;;;;;12.90;6.40;;;11.80;70.90;;;;;;5057824;28;20044;-79
2021/12/28 05:19:34;;;;;;;14.52;7.55;;;12.00;70.10;;;;;;5075132;28;20048;-74
2021/12/28 05:22:00;;;;;;;17.63;8.25;;;12.10;69.30;;;;;;5075167;28;20045;-76
2021/12/28 05:24:26;;;;;;;17.35;7.70;;;12.20;68.60;;;;;;5040681;28;20469;-74
2021/12/28 05:26:52;;;;;;;13.85;7.70;;;12.30;68.20;;;;;;5086537;28;20075;-76
2021/12/28 05:29:19;;;;;;;15.77;8.90;;;12.40;67.90;;;;;;5095744;28;20363;-72
2021/12/28 05:31:44;;;;;;;15.93;9.10;;;12.40;67.70;;;;;;5095073;28;20059;-77
2021/12/28 05:34:10;;;;;;;15.63;9.25;;;12.50;67.50;;;;;;5077410;28;20052;-73
2021/12/28 05:36:36;;;;;;;14.18;8.20;;;12.50;67.40;;;;;;5095899;28;20040;-74
2021/12/28 05:39:04;;;;;;;20.23;9.27;;;12.50;67.20;;;;;;5082138;28;20143;-74
2021/12/28 05:41:30;;;;;;;15.25;9.40;;;12.60;67.20;;;;;;5075229;28;20036;-80
2021/12/28 05:43:55;;;;;;;19.83;9.20;;;12.60;67.10;;;;;;5057387;28;20474;-79
2021/12/28 05:46:21;;;;;;;25.27;17.77;;;12.60;67.20;;;;;;5057844;28;20045;-74
2021/12/28 05:48:47;;;;;;;24.05;13.57;;;12.60;67.70;;;;;;5075143;28;20451;-80
2021/12/28 05:51:14;;;;;;;25.92;14.50;;;12.60;68.00;;;;;;5074922;28;20040;-75
2021/12/28 05:53:40;;;;;;;30.05;14.63;;;12.70;68.60;;;;;;5040442;28;20167;-75
2021/12/28 05:56:06;;;;;;;21.55;11.48;;;12.70;69.20;;;;;;5074613;28;20119;-75
2021/12/28 05:58:32;;;;;;;32.58;12.65;;;12.70;69.20;;;;;;5057095;28;20459;-73
2021/12/28 06:00:58;;;;;;;24.35;11.55;;;12.70;69.10;;;;;;5073817;28;20043;-70
2021/12/28 06:03:23;;;;;;;18.48;11.55;;;12.70;69.40;;;;;;5078474;28;20032;-78
2021/12/28 06:05:49;;;;;;;22.55;11.15;;;12.70;69.70;;;;;;5068469;28;20037;-77
2021/12/28 06:08:15;;;;;;;37.88;16.73;;;12.80;69.70;;;;;;5074448;28;20079;-82
2021/12/28 06:10:53;;;;;;;35.47;15.75;;;12.70;70.00;;;;;;5074674;28;20032;-82
2021/12/28 06:13:19;;;;;;;30.20;14.07;;;12.80;70.40;;;;;;5040886;28;20051;-78
2021/12/28 06:15:47;;;;;;;29.75;16.38;;;12.80;70.20;;;;;;5057555;28;20048;-77
2021/12/28 06:18:13;;;;;;;25.60;14.23;;;12.90;70.30;;;;;;5068064;28;20459;-78
2021/12/28 06:20:39;;;;;;;29.73;13.55;;;12.90;70.30;;;;;;5076143;28;20051;-80
2021/12/28 06:23:05;;;;;;;19.77;11.68;;;12.90;70.30;;;;;;5049968;28;20052;-82
2021/12/28 06:26:23;;;;;;;21.83;11.60;;;12.90;69.70;;;;;;5073335;28;20083;-82
2021/12/28 06:29:05;;;;;;;26.63;10.52;;;12.90;69.90;;;;;;5056833;28;20360;-78
2021/12/28 06:31:32;;;;;;;22.92;12.50;;;12.90;70.50;;;;;;5060036;28;20037;-82
2021/12/28 06:49:47;;;;;;;17.35;5.78;;;14.10;70.40;;;;;;4918699;23;20091;-80
2021/12/28 06:52:43;;;;;;;13.00;5.97;;;14.40;69.40;;;;;;4864608;29;20426;-84
2021/12/28 06:55:20;;;;;;;9.95;5.32;;;14.20;68.30;;;;;;4851105;29;20053;-81
2021/12/28 06:58:05;;;;;;;19.30;5.47;;;14.30;68.80;;;;;;4865432;29;20200;-82
2021/12/28 07:00:42;;;;;;;20.55;5.80;;;14.50;68.30;;;;;;4869708;29;20245;-81
2021/12/28 07:03:11;;;;;;;12.38;4.80;;;14.60;67.70;;;;;;4843865;29;20053;-81
2021/12/28 07:06:16;;;;;;;11.80;4.40;;;14.70;67.50;;;;;;4882510;29;20036;-83
2021/12/28 07:08:45;;;;;;;10.60;4.32;;;14.80;67.50;;;;;;4786683;29;20101;-82
2021/12/28 07:11:14;;;;;;;11.05;3.95;;;14.90;67.50;;;;;;4857968;29;20128;-81
2021/12/28 07:13:42;;;;;;;11.05;3.45;;;14.90;67.40;;;;;;4866813;29;20108;-82
2021/12/28 07:16:10;;;;;;;10.93;4.03;;;15.00;67.50;;;;;;4849030;29;20393;-82
2021/12/28 07:18:39;;;;;;;8.75;3.83;;;15.00;67.60;;;;;;4850257;29;20054;-83
2021/12/28 07:21:05;;;;;;;8.55;4.03;;;15.00;67.60;;;;;;4850855;29;20049;-80
2021/12/28 07:23:33;;;;;;;11.48;4.40;;;15.10;67.20;;;;;;4850753;29;20461;-83
2021/12/28 07:26:04;;;;;;;7.95;3.80;;;15.10;66.80;;;;;;4866723;29;20427;-81
2021/12/28 07:28:30;;;;;;;10.68;4.35;;;15.20;66.40;;;;;;4840165;29;20156;-81
2021/12/28 07:31:03;;;;;;;9.60;4.53;;;15.30;66.00;;;;;;4845799;29;20068;-81
2021/12/28 07:33:29;;;;;;;9.70;4.88;;;15.30;65.80;;;;;;4850676;29;20373;-82
2021/12/28 07:35:58;;;;;;;10.85;4.50;;;15.40;65.40;;;;;;4850984;29;20045;-83
2021/12/28 07:38:48;;;;;;;9.10;4.50;;;15.50;65.00;;;;;;4850837;29;20040;-82
2021/12/28 07:41:14;;;;;;;16.13;4.18;;;15.50;64.40;;;;;;4850816;29;20125;-80
2021/12/28 07:43:40;;;;;;;9.38;3.47;;;15.60;64.30;;;;;;4846443;29;20049;-82
2021/12/28 07:46:07;;;;;;;9.82;3.88;;;15.70;64.30;;;;;;4839494;29;20037;-80
2021/12/28 07:48:33;;;;;;;11.30;4.35;;;15.60;64.30;;;;;;4847795;29;20050;-82
2021/12/28 07:50:59;;;;;;;10.68;3.97;;;15.60;64.00;;;;;;4846311;29;20213;-81
2021/12/28 07:53:25;;;;;;;8.23;3.05;;;15.60;64.00;;;;;;4836893;29;20465;-82
2021/12/28 07:55:50;;;;;;;10.45;3.40;;;15.60;63.90;;;;;;4844668;29;20351;-83
2021/12/28 07:58:16;;;;;;;12.75;3.00;;;15.60;63.90;;;;;;4840621;29;20048;-77
2021/12/28 08:00:42;;;;;;;10.27;2.97;;;15.60;64.00;;;;;;4865554;29;20442;-74
2021/12/28 08:03:08;;;;;;;8.30;2.72;;;15.70;64.00;;;;;;4863170;29;20076;-75
2021/12/28 08:05:35;;;;;;;6.95;2.55;;;15.70;63.90;;;;;;4868162;29;20083;-77
2021/12/28 08:08:02;;;;;;;6.70;2.15;;;15.70;63.90;;;;;;4864572;29;20056;-75
2021/12/28 08:10:28;;;;;;;6.93;2.90;;;15.80;63.90;;;;;;4865780;29;20373;-74
2021/12/28 08:12:56;;;;;;;9.27;2.83;;;15.80;64.00;;;;;;4871215;29;20529;-76
2021/12/28 08:15:24;;;;;;;8.02;3.08;;;15.80;64.00;;;;;;4889608;29;20085;-78
2021/12/28 08:17:50;;;;;;;7.10;2.10;;;15.80;63.80;;;;;;4850082;29;20052;-77
2021/12/28 08:20:17;;;;;;;7.72;2.42;;;15.90;63.60;;;;;;4882255;29;20079;-76
2021/12/28 08:22:43;;;;;;;10.02;2.97;;;15.90;63.60;;;;;;4858751;29;20462;-77
2021/12/28 08:25:12;;;;;;;8.23;2.83;;;16.00;63.50;;;;;;4856634;29;20061;-80
2021/12/28 08:27:43;;;;;;;13.52;3.05;;;16.00;63.30;;;;;;4865566;29;20124;-79
2021/12/28 08:30:13;;;;;;;8.55;3.30;;;16.10;63.20;;;;;;4849204;29;20037;-78
2021/12/28 08:32:39;;;;;;;8.38;3.58;;;16.20;62.60;;;;;;4846945;29;20484;-77
2021/12/28 08:35:06;;;;;;;10.57;3.15;;;16.20;62.10;;;;;;4872569;29;20033;-79
2021/12/28 08:37:35;;;;;;;8.23;3.00;;;16.20;62.10;;;;;;4864825;29;20064;-73
2021/12/28 08:40:38;;;;;;;9.43;3.08;;;16.20;61.60;;;;;;4864015;29;20052;-82
2021/12/28 08:43:08;;;;;;;10.32;3.50;;;16.20;61.50;;;;;;4867568;29;20040;-79
2021/12/28 08:45:34;;;;;;;9.35;3.03;;;16.30;62.10;;;;;;4864662;29;20136;-78
2021/12/28 08:48:01;;;;;;;7.72;2.90;;;16.20;62.70;;;;;;4849029;29;20060;-74
2021/12/28 08:50:28;;;;;;;9.98;3.95;;;16.20;63.20;;;;;;4878310;29;20382;-76
2021/12/28 08:52:54;;;;;;;10.10;3.67;;;16.20;63.50;;;;;;4881525;29;20055;-78
2021/12/28 08:55:24;;;;;;;8.50;2.95;;;16.30;65.50;;;;;;4881375;29;20061;-80
2021/12/28 08:57:51;;;;;;;11.65;3.22;;;16.30;63.80;;;;;;4864293;29;20049;-77
2021/12/28 09:00:32;;;;;;;8.10;3.03;;;16.30;64.70;;;;;;4880904;29;20354;-77
2021/12/28 09:02:59;;;;;;;8.35;2.85;;;16.30;62.50;;;;;;4849279;29;20468;-80
2021/12/28 09:05:27;;;;;;;5.82;2.63;;;16.40;63.00;;;;;;4881286;29;20045;-76
2021/12/28 09:07:54;;;;;;;8.07;2.63;;;16.40;62.10;;;;;;4848989;29;20084;-76
2021/12/28 09:10:21;;;;;;;6.97;2.58;;;16.40;62.50;;;;;;4892397;29;20045;-77
2021/12/28 09:12:47;;;;;;;8.68;2.92;;;16.40;62.30;;;;;;4880210;29;20431;-78
2021/12/28 09:15:13;;;;;;;9.15;3.28;;;16.30;62.30;;;;;;4881146;29;20049;-78
2021/12/28 09:17:40;;;;;;;11.38;2.58;;;16.30;62.80;;;;;;4880880;29;20124;-78
2021/12/28 09:20:13;;;;;;;7.32;2.45;;;16.20;62.60;;;;;;4864855;29;20061;-76
2021/12/28 09:22:39;;;;;;;8.20;2.47;;;16.10;62.80;;;;;;4881300;29;20125;-76
2021/12/28 09:25:06;;;;;;;7.32;2.67;;;16.00;62.70;;;;;;4864766;29;20395;-82
2021/12/28 09:27:32;;;;;;;9.10;2.28;;;16.00;62.90;;;;;;4850753;29;20076;-78
2021/12/28 09:30:05;;;;;;;7.10;2.05;;;16.00;62.80;;;;;;4877341;29;20163;-79
2021/12/28 09:32:34;;;;;;;7.47;2.30;;;15.90;62.60;;;;;;4844530;29;20041;-78
2021/12/28 09:35:00;;;;;;;9.30;2.42;;;15.80;63.10;;;;;;4831150;29;20045;-79
2021/12/28 09:37:35;;;;;;;7.85;2.20;;;15.70;63.40;;;;;;4843161;29;20048;-80
2021/12/28 09:40:12;;;;;;;5.65;2.53;;;15.70;63.30;;;;;;4849160;29;20045;-79
2021/12/28 09:42:39;;;;;;;5.35;1.92;;;15.60;63.40;;;;;;4864250;29;20465;-80
2021/12/28 09:45:06;;;;;;;5.82;2.08;;;15.60;63.80;;;;;;4880909;29;20037;-79
2021/12/28 09:47:33;;;;;;;7.07;1.95;;;15.50;64.00;;;;;;4880752;29;20040;-80
2021/12/28 09:49:59;;;;;;;4.50;1.90;;;15.50;64.70;;;;;;4863551;29;20061;-80
2021/12/28 09:52:25;;;;;;;7.93;2.40;;;15.40;65.70;;;;;;4860289;29;20453;-78
2021/12/28 09:54:51;;;;;;;6.25;1.85;;;15.40;65.50;;;;;;4864440;29;20469;-74
2021/12/28 09:57:18;;;;;;;7.47;2.63;;;15.40;65.80;;;;;;4880413;29;20045;-80
2021/12/28 09:59:47;;;;;;;4.88;1.63;;;15.40;65.70;;;;;;4864161;29;20060;-80
2021/12/28 10:02:14;;;;;;;8.35;2.28;;;15.40;66.10;;;;;;4864515;29;20064;-79
2021/12/28 10:04:58;;;;;;;5.05;1.70;;;15.40;66.10;;;;;;4858981;29;20128;-79
2021/12/28 10:07:27;;;;;;;9.27;2.22;;;15.40;66.30;;;;;;4860727;29;20056;-78
2021/12/28 10:09:54;;;;;;;7.25;1.60;;;15.50;66.20;;;;;;4875383;29;20432;-79
2021/12/28 10:12:33;;;;;;;8.48;1.73;;;15.50;66.40;;;;;;4849103;29;20128;-80
2021/12/28 10:15:06;;;;;;;5.28;1.60;;;15.60;67.00;;;;;;4858988;29;20049;-81
2021/12/28 10:17:33;;;;;;;9.73;3.38;;;15.60;66.60;;;;;;4860234;29;20369;-79
2021/12/28 10:20:00;;;;;;;8.63;2.03;;;15.60;68.30;;;;;;4866906;29;20048;-77
2021/12/28 10:22:29;;;;;;;6.60;1.73;;;15.30;67.70;;;;;;4880003;29;20041;-78
2021/12/28 10:25:02;;;;;;;14.75;2.80;;;15.40;68.40;;;;;;4869581;29;20038;-76
2021/12/28 10:27:30;;;;;;;10.98;1.77;;;15.50;67.80;;;;;;4870007;29;20117;-76
2021/12/28 10:30:06;;;;;;;13.55;2.20;;;15.60;67.70;;;;;;4883091;29;20461;-78
2021/12/28 10:32:33;;;;;;;11.57;1.70;;;15.80;68.40;;;;;;4864970;29;20537;-81
2021/12/28 10:35:03;;;;;;;6.63;1.75;;;15.90;67.60;;;;;;4894601;29;20056;-81
2021/12/28 10:37:38;;;;;;;9.50;1.75;;;16.00;67.60;;;;;;4852435;29;20067;-80
2021/12/28 10:40:12;;;;;;;11.23;2.63;;;16.10;67.80;;;;;;4884144;29;20041;-81
2021/12/28 10:42:39;;;;;;;;;;;16.20;67.50;;;;;;4867820;29;20128;-77
2021/12/28 10:45:08;;;;;;;12.73;2.88;;;16.30;67.20;;;;;;4866084;29;19924;-81
2021/12/28 10:47:34;;;;;;;6.28;1.52;;;16.40;66.70;;;;;;4866066;29;20088;-78
2021/12/28 10:50:07;;;;;;;8.30;1.23;;;16.50;66.60;;;;;;4865648;29;20125;-79
2021/12/28 10:52:39;;;;;;;6.15;1.35;;;16.60;66.40;;;;;;4864605;29;20059;-79
2021/12/28 10:55:23;;;;;;;10.55;1.30;;;16.70;66.20;;;;;;4864594;29;20419;-81
2021/12/28 10:57:50;;;;;;;15.23;1.80;;;16.80;66.10;;;;;;4864452;29;20482;-81
2021/12/28 11:00:26;;;;;;;8.73;2.05;;;16.90;65.90;;;;;;4833069;29;20050;-79
2021/12/28 11:03:12;;;;;;;9.02;1.92;;;16.90;65.80;;;;;;4863990;29;20493;-79
2021/12/28 11:05:38;;;;;;;9.55;1.90;;;17.00;65.60;;;;;;4835207;29;20062;-79
2021/12/28 11:08:09;;;;;;;8.35;1.10;;;17.10;65.40;;;;;;4864052;29;20069;-81
2021/12/28 11:10:44;;;;;;;9.02;1.80;;;17.10;65.30;;;;;;4845314;29;20530;-81
2021/12/28 11:13:12;;;;;;;4.53;1.15;;;17.10;65.30;;;;;;4848136;29;20129;-80
2021/12/28 11:15:44;;;;;;;5.28;0.90;;;17.10;65.30;;;;;;4865529;29;20065;-81
2021/12/28 11:18:33;;;;;;;6.40;1.17;;;17.10;65.30;;;;;;4849214;29;20061;-81
2021/12/28 11:21:20;;;;;;;11.27;1.40;;;17.10;65.20;;;;;;4847637;29;20059;-77
2021/12/28 11:23:53;;;;;;;4.25;1.30;;;17.10;65.30;;;;;;4848344;29;20053;-78
2021/12/28 11:26:27;;;;;;;16.88;1.83;;;17.10;65.40;;;;;;4864992;29;20127;-79
2021/12/28 11:28:57;;;;;;;8.32;1.50;;;17.10;65.60;;;;;;4847426;29;20052;-77
2021/12/28 11:31:35;;;;;;;12.13;1.90;;;17.10;65.50;;;;;;4864491;29;20109;-80
2021/12/28 11:34:12;;;;;;;11.52;1.45;;;17.20;65.70;;;;;;4865198;29;20350;-83
2021/12/28 11:36:45;;;;;;;9.73;1.63;;;17.20;65.90;;;;;;4833130;29;20095;-83
2021/12/28 11:39:23;;;;;;;14.20;1.70;;;17.10;66.10;;;;;;4833989;29;20057;-82
2021/12/28 11:41:49;;;;;;;11.20;1.80;;;17.10;66.10;;;;;;4848383;29;20084;-82
2021/12/28 11:44:18;;;;;;;12.05;1.88;;;17.00;66.30;;;;;;4849153;29;20128;-81
2021/12/28 11:46:55;;;;;;;12.60;1.40;;;17.00;66.60;;;;;;4833077;29;20037;-80
2021/12/28 11:49:26;;;;;;;8.88;1.52;;;17.00;66.70;;;;;;4829863;29;20377;-84
2021/12/28 11:55:22;;;;;;;5.47;1.27;;;17.00;66.60;;;;;;4876854;29;20053;-81
2021/12/28 11:57:55;;;;;;;14.00;1.77;;;16.90;66.80;;;;;;4865409;29;20049;-82
2021/12/28 12:00:22;;;;;;;11.77;1.98;;;16.80;65.50;;;;;;4851524;29;20063;-81
2021/12/28 12:02:52;;;;;;;11.73;1.60;;;16.30;70.10;;;;;;4866321;29;20456;-81
2021/12/28 12:05:26;;;;;;;13.00;1.77;;;16.40;69.30;;;;;;4851175;29;20045;-82
2021/12/28 12:08:10;;;;;;;;;;;16.60;68.80;;;;;;4850692;29;20061;-80
2021/12/28 12:10:44;;;;;;;7.32;1.20;;;16.70;68.80;;;;;;4850508;29;20075;-80
2021/12/28 12:13:19;;;;;;;5.72;1.00;;;16.80;68.10;;;;;;4883008;29;20044;-80
2021/12/28 12:15:53;;;;;;;5.90;0.95;;;16.90;67.30;;;;;;4866224;29;20048;-80
2021/12/28 12:18:22;;;;;;;7.93;1.60;;;16.90;67.30;;;;;;4864352;29;20097;-79
2021/12/28 12:20:52;;;;;;;4.30;1.15;;;17.00;66.70;;;;;;4856630;29;20037;-81
2021/12/28 12:23:22;;;;;;;6.13;0.90;;;17.00;66.40;;;;;;4856227;29;20469;-79
2021/12/28 12:25:51;;;;;;;9.10;1.08;;;17.10;66.30;;;;;;4865754;29;20048;-79
2021/12/28 12:28:40;;;;;;;6.88;0.80;;;17.10;66.20;;;;;;4865725;29;20366;-79
2021/12/28 12:31:10;;;;;;;10.73;1.25;;;17.20;66.40;;;;;;4881958;29;20061;-80
2021/12/28 12:33:40;;;;;;;6.45;1.30;;;17.30;66.20;;;;;;4881398;29;20049;-82
2021/12/28 12:36:15;;;;;;;4.53;1.00;;;17.40;66.10;;;;;;4865499;29;20496;-81
2021/12/28 12:38:41;;;;;;;3.95;0.63;;;17.40;66.50;;;;;;4851060;29;20044;-81
2021/12/28 12:41:14;;;;;;;5.15;1.05;;;17.40;66.60;;;;;;4865352;29;20128;-84
2021/12/28 12:43:47;;;;;;;6.50;0.68;;;17.40;66.10;;;;;;4864862;29;20067;-81
2021/12/28 12:46:38;;;;;;;7.80;1.08;;;17.40;66.20;;;;;;4865109;29;20465;-79
2021/12/28 12:49:29;;;;;;;6.65;1.05;;;17.40;66.30;;;;;;4858094;29;20054;-82
2021/12/28 12:52:11;;;;;;;6.32;1.25;;;17.40;66.50;;;;;;4876266;29;20045;-80
2021/12/28 12:54:52;;;;;;;8.80;0.98;;;17.40;66.40;;;;;;4872455;29;20041;-79
2021/12/28 12:57:28;;;;;;;6.90;1.27;;;17.40;66.50;;;;;;4864089;29;20102;-82
2021/12/28 12:59:57;;;;;;;9.10;1.02;;;17.40;66.50;;;;;;4859825;29;20037;-80
2021/12/28 13:02:27;;;;;;;5.60;0.80;;;17.40;66.60;;;;;;4848388;29;20048;-80
2021/12/28 13:04:59;;;;;;;4.97;0.82;;;17.40;66.50;;;;;;4849913;29;20373;-80
2021/12/28 13:07:31;;;;;;;5.55;0.93;;;17.20;70.00;;;;;;4881301;29;20048;-81
2021/12/28 13:10:27;;;;;;;10.40;0.88;;;16.80;71.90;;;;;;4863663;29;20057;-82
2021/12/28 13:12:55;;;;;;;7.40;1.27;;;16.90;69.40;;;;;;4851394;29;20041;-82